Redings Mill, Missouri
Current Conditions -  °F | °C
As of 2:53 PM on Thursday 20 Nov 2014 (Local Time) from KJLN Reporting Station
Clear Clear  
Wind Chill: 50°   Ceiling: Unl
Heat Index: 50°   Visibility: 10mi
Dew Point: 24°   Wind: 8mph
Humidity: 36%   Direction: 80°E
Pressure: 30.11"   Gusts: NA
Location:  37.1074°N, 94.5218°W
Report Text: KJLN 202053Z 08007KT 10SM CLR 10/M04 A3011 RMK AO2 SLP202 T01001044 56024
Loading
Personal Weather Stations






























Interactive Weather Map New forecast layout! Learn more

10-Day Weather Forecast

Advertisements
Track Severe Weather on mobile